| time (UTC) | temp C | wind direction | speed KPH | gust KPH | rain 1hr cm | rain 24hr cm | rain mn cm | humidity % | barometer mb |
| 20260507075835 | 12 | 195 | 30.6 | 37.0 | 0.00 | 0.00 | 0.00 | 89 | 1011.7 |
| 20260507075355 | 12 | 203 | 30.6 | 33.8 | 0.00 | 0.00 | 0.00 | 89 | 1011.7 |
| 20260507074915 | 12 | 201 | 33.8 | 49.9 | 0.00 | 0.00 | 0.00 | 90 | 1011.7 |
| 20260507074435 | 12 | 203 | 35.4 | 40.2 | 0.00 | 0.00 | 0.00 | 91 | 1011.7 |
| 20260507073955 | 12 | 204 | 33.8 | 37.0 | 0.00 | 0.00 | 0.00 | 92 | 1011.6 |
| 20260507073515 | 12 | 215 | 27.4 | 38.6 | 0.00 | 0.00 | 0.00 | 95 | 1011.6 |
| 20260507073034 | 11 | 218 | 29.0 | 37.0 | 0.00 | 0.00 | 0.00 | 96 | 1011.5 |
| 20260507072554 | 11 | 207 | 27.4 | 33.8 | 0.00 | 0.00 | 0.00 | 97 | 1011.5 |
| 20260507072114 | 11 | 187 | 27.4 | 35.4 | 0.00 | 0.00 | 0.00 | 98 | 1011.5 |
| 20260507071634 | 11 | 186 | 24.1 | 30.6 | 0.00 | 0.00 | 0.00 | 98 | 1011.4 |
| 20260507071154 | 11 | 196 | 24.1 | 29.0 | 0.00 | 0.00 | 0.00 | 100 | 1011.4 |
| 20260507070714 | 11 | 193 | 25.7 | 32.2 | 0.00 | 0.00 | 0.00 | 100 | 1011.3 |
| 20260507070234 | 11 | 213 | 22.5 | 27.4 | 0.00 | 0.00 | 0.00 | 100 | 1011.4 |
| 20260507065753 | 11 | 193 | 25.7 | 37.0 | 0.00 | 0.00 | 0.00 | 100 | 1011.2 |
| 20260507065313 | 11 | 190 | 24.1 | 30.6 | 0.00 | 0.00 | 0.00 | 100 | 1011.3 |
| 20260507064833 | 11 | 201 | 24.1 | 29.0 | 0.00 | 0.00 | 0.00 | 100 | 1011.2 |
| 20260507064353 | 11 | 219 | 29.0 | 37.0 | 0.00 | 0.00 | 0.00 | 100 | 1011.2 |
| 20260507063913 | 11 | 210 | 25.7 | 30.6 | 0.00 | 0.00 | 0.00 | 100 | 1011.2 |
| 20260507063433 | 11 | 219 | 27.4 | 32.2 | 0.00 | 0.00 | 0.00 | 100 | 1011.1 |
| 20260507062953 | 11 | 216 | 30.6 | 35.4 | 0.00 | 0.00 | 0.00 | 100 | 1011.1 |
| 20260507062513 | 11 | 210 | 25.7 | 29.0 | 0.00 | 0.00 | 0.00 | 100 | 1011.2 |
| 20260507062032 | 11 | 219 | 29.0 | 33.8 | 0.00 | 0.00 | 0.00 | 100 | 1011.1 |
| 20260507061552 | 11 | 210 | 22.5 | 27.4 | 0.00 | 0.00 | 0.00 | 100 | 1011.1 |
| 20260507061112 | 11 | 199 | 25.7 | 30.6 | 0.00 | 0.00 | 0.00 | 100 | 1010.9 |
| 20260507060632 | 11 | 186 | 25.7 | 32.2 | 0.00 | 0.00 | 0.00 | 100 | 1010.9 |
| 20260507060152 | 11 | 198 | 22.5 | 25.7 | 0.00 | 0.00 | 0.00 | 100 | 1011.0 |
| 20260507055712 | 11 | 199 | 30.6 | 37.0 | 0.00 | 0.00 | 0.00 | 100 | 1010.8 |
| 20260507055232 | 11 | 184 | 25.7 | 29.0 | 0.00 | 0.00 | 0.00 | 100 | 1010.9 |
| 20260507054752 | 11 | 207 | 24.1 | 27.4 | 0.00 | 0.00 | 0.00 | 100 | 1010.7 |
| 20260507054311 | 11 | 203 | 19.3 | 25.7 | 0.00 | 0.00 | 0.00 | 100 | 1010.6 |
| 20260507053831 | 11 | 204 | 22.5 | 25.7 | 0.00 | 0.00 | 0.00 | 100 | 1010.6 |
| 20260507053351 | 11 | 192 | 22.5 | 25.7 | 0.00 | 0.00 | 0.00 | 100 | 1010.5 |
| 20260507052911 | 11 | 193 | 25.7 | 32.2 | 0.00 | 0.00 | 0.00 | 100 | 1010.6 |
| 20260507052431 | 10 | 190 | 27.4 | 30.6 | 0.00 | 0.00 | 0.00 | 100 | 1010.4 |
| 20260507051951 | 10 | 196 | 25.7 | 29.0 | 0.00 | 0.00 | 0.00 | 100 | 1010.3 |
| 20260507051511 | 11 | 206 | 25.7 | 32.2 | 0.00 | 0.00 | 0.00 | 100 | 1010.3 |
| 20260507051031 | 10 | 190 | 25.7 | 33.8 | 0.00 | 0.00 | 0.00 | 100 | 1010.3 |
| 20260507050551 | 10 | 192 | 24.1 | 29.0 | 0.00 | 0.00 | 0.00 | 100 | 1010.2 |
| 20260507050111 | 10 | 198 | 24.1 | 32.2 | 0.00 | 0.00 | 0.00 | 100 | 1010.3 |
| 20260507045631 | 10 | 192 | 22.5 | 29.0 | 0.00 | 0.00 | 0.00 | 100 | 1010.2 |
| 20260507045150 | 10 | 183 | 19.3 | 24.1 | 0.00 | 0.00 | 0.00 | 100 | 1010.2 |
| 20260507044710 | 9 | 198 | 19.3 | 22.5 | 0.00 | 0.00 | 0.00 | 100 | 1010.2 |
| 20260507044230 | 9 | 206 | 20.9 | 22.5 | 0.00 | 0.00 | 0.00 | 100 | 1010.1 |
| 20260507043751 | 9 | 204 | 22.5 | 27.4 | 0.00 | 0.00 | 0.00 | 100 | 1010.0 |
| 20260507043310 | 9 | 206 | 19.3 | 25.7 | 0.00 | 0.00 | 0.00 | 100 | 1010.0 |
| 20260507042830 | 9 | 189 | 19.3 | 20.9 | 0.00 | 0.00 | 0.00 | 100 | 1009.9 |
| 20260507042350 | 9 | 195 | 17.7 | 20.9 | 0.00 | 0.00 | 0.00 | 100 | 1009.9 |
| 20260507041910 | 9 | 198 | 17.7 | 19.3 | 0.00 | 0.00 | 0.00 | 100 | 1009.9 |
| 20260507041622 | 9 | 198 | 16.1 | 19.3 | 0.00 | 0.00 | 0.00 | 100 | 1009.9 |
| 20260507041430 | 9 | 198 | 16.1 | 19.3 | 0.00 | 0.00 | 0.00 | 100 | 1009.9 |
| 20260507040950 | 9 | 180 | 16.1 | 16.1 | 0.00 | 0.00 | 0.00 | 100 | 1009.9 |
| 20260507040510 | 9 | 186 | 16.1 | 19.3 | 0.00 | 0.00 | 0.00 | 100 | 1009.9 |
| 20260507040030 | 9 | 180 | 14.5 | 16.1 | 0.00 | 0.00 | 0.00 | 100 | 1009.9 |
| 20260507035550 | 9 | 180 | 14.5 | 16.1 | 0.00 | 0.00 | 0.00 | 100 | 1009.9 |
| 20260507035110 | 9 | 183 | 14.5 | 16.1 | 0.00 | 0.00 | 0.00 | 100 | 1009.8 |
| 20260507034630 | 9 | 180 | 16.1 | 19.3 | 0.00 | 0.00 | 0.00 | 100 | 1009.9 |
| 20260507034150 | 9 | 183 | 16.1 | 19.3 | 0.00 | 0.00 | 0.00 | 100 | 1009.9 |
| 20260507033710 | 9 | 180 | 14.5 | 14.5 | 0.00 | 0.00 | 0.00 | 100 | 1009.8 |
| 20260507033230 | 9 | 186 | 14.5 | 16.1 | 0.00 | 0.00 | 0.00 | 100 | 1009.8 |
| 20260507032822 | 9 | 186 | 14.5 | 19.3 | 0.00 | 0.00 | 0.00 | 100 | 1009.8 |
| 20260507032750 | 9 | 186 | 14.5 | 19.3 | 0.00 | 0.00 | 0.00 | 100 | 1009.8 |
| 20260507032310 | 9 | 181 | 16.1 | 20.9 | 0.00 | 0.00 | 0.00 | 100 | 1009.9 |
| 20260507031831 | 9 | 181 | 14.5 | 17.7 | 0.00 | 0.00 | 0.00 | 100 | 1009.8 |
| 20260507031350 | 9 | 186 | 14.5 | 16.1 | 0.00 | 0.00 | 0.00 | 100 | 1009.8 |
| 20260507030911 | 9 | 189 | 14.5 | 16.1 | 0.00 | 0.00 | 0.00 | 100 | 1009.8 |
| 20260507030431 | 9 | 183 | 14.5 | 19.3 | 0.00 | 0.00 | 0.00 | 100 | 1009.8 |
| 20260507025951 | 9 | 186 | 16.1 | 19.3 | 0.00 | 0.00 | 0.00 | 100 | 1009.7 |
| 20260507025511 | 9 | 180 | 17.7 | 20.9 | 0.00 | 0.00 | 0.00 | 100 | 1009.8 |
| 20260507025031 | 9 | 183 | 17.7 | 19.3 | 0.00 | 0.00 | 0.00 | 100 | 1009.7 |
| 20260507024551 | 8 | 189 | 17.7 | 20.9 | 0.00 | 0.00 | 0.00 | 100 | 1009.7 |
| 20260507024228 | 8 | 183 | 16.1 | 17.7 | 0.00 | 0.00 | 0.00 | 100 | 1009.7 |
| 20260507024111 | 8 | 183 | 16.1 | 17.7 | 0.00 | 0.00 | 0.00 | 100 | 1009.7 |
| 20260507023631 | 8 | 180 | 14.5 | 16.1 | 0.00 | 0.00 | 0.00 | 100 | 1009.6 |
| 20260507023151 | 8 | 183 | 14.5 | 16.1 | 0.00 | 0.00 | 0.00 | 100 | 1009.6 |
| 20260507022711 | 8 | 180 | 14.5 | 19.3 | 0.00 | 0.00 | 0.00 | 100 | 1009.5 |
| 20260507022231 | 8 | 183 | 12.9 | 16.1 | 0.00 | 0.00 | 0.00 | 100 | 1009.5 |
| 20260507021751 | 8 | 180 | 14.5 | 16.1 | 0.00 | 0.00 | 0.00 | 100 | 1009.5 |
| 20260507021311 | 9 | 183 | 14.5 | 17.7 | 0.00 | 0.00 | 0.00 | 100 | 1009.5 |
| 20260507020831 | 9 | 183 | 14.5 | 16.1 | 0.00 | 0.00 | 0.00 | 100 | 1009.5 |
| 20260507020351 | 9 | 180 | 14.5 | 16.1 | 0.00 | 0.00 | 0.00 | 100 | 1009.4 |
| 20260507015911 | 9 | 180 | 14.5 | 17.7 | 0.00 | 0.00 | 0.00 | 100 | 1009.4 |
| 20260507015431 | 9 | 180 | 12.9 | 17.7 | 0.00 | 0.00 | 0.00 | 100 | 1009.3 |
| 20260507014951 | 9 | 183 | 14.5 | 17.7 | 0.00 | 0.00 | 0.00 | 100 | 1009.3 |
| 20260507014511 | 9 | 195 | 14.5 | 16.1 | 0.00 | 0.00 | 0.00 | 100 | 1009.3 |
| 20260507014031 | 9 | 192 | 14.5 | 17.7 | 0.00 | 0.00 | 0.00 | 100 | 1009.2 |
| 20260507013551 | 9 | 195 | 11.3 | 12.9 | 0.00 | 0.00 | 0.00 | 100 | 1009.1 |
| 20260507013111 | 9 | 193 | 11.3 | 12.9 | 0.00 | 0.00 | 0.00 | 100 | 1009.0 |
| 20260507012631 | 9 | 193 | 14.5 | 17.7 | 0.00 | 0.00 | 0.00 | 100 | 1009.0 |
| 20260507012151 | 9 | 206 | 14.5 | 16.1 | 0.00 | 0.00 | 0.00 | 100 | 1008.9 |
| 20260507011711 | 9 | 203 | 14.5 | 17.7 | 0.00 | 0.00 | 0.00 | 100 | 1009.0 |
| 20260507011231 | 9 | 198 | 14.5 | 16.1 | 0.00 | 0.00 | 0.00 | 100 | 1009.0 |
| 20260507010751 | 10 | 183 | 14.5 | 16.1 | 0.00 | 0.00 | 0.00 | 100 | 1009.0 |
| 20260507010311 | 10 | 186 | 14.5 | 16.1 | 0.00 | 0.00 | 0.00 | 100 | 1009.0 |
| 20260507005831 | 10 | 197 | 12.9 | 14.5 | 0.00 | 0.00 | 0.00 | 100 | 1009.1 |
| 20260507005351 | 10 | 193 | 14.5 | 16.1 | 0.00 | 0.00 | 0.00 | 100 | 1009.0 |
| 20260507004911 | 10 | 205 | 16.1 | 17.7 | 0.00 | 0.00 | 0.00 | 100 | 1009.1 |
| 20260507004431 | 10 | 201 | 17.7 | 19.3 | 0.00 | 0.00 | 0.00 | 100 | 1009.1 |
| 20260507003950 | 10 | 213 | 16.1 | 19.3 | 0.00 | 0.00 | 0.00 | 100 | 1009.1 |
| 20260507003510 | 10 | 219 | 12.9 | 12.9 | 0.00 | 0.00 | 0.00 | 100 | 1008.9 |
| 20260507003030 | 10 | 219 | 11.3 | 12.9 | 0.00 | 0.00 | 0.00 | 100 | 1008.8 |
| 20260507002550 | 10 | 222 | 9.7 | 11.3 | 0.00 | 0.00 | 0.00 | 100 | 1008.8 |
| 20260507002110 | 10 | 224 | 11.3 | 12.9 | 0.00 | 0.00 | 0.00 | 100 | 1008.8 |
| 20260507001630 | 10 | 224 | 11.3 | 12.9 | 0.00 | 0.00 | 0.00 | 100 | 1008.7 |
| 20260507001150 | 10 | 225 | 9.7 | 11.3 | 0.00 | 0.00 | 0.00 | 100 | 1008.6 |
| 20260507000710 | 10 | 225 | 8.0 | 9.7 | 0.00 | 0.00 | 0.00 | 100 | 1008.6 |
| 20260507000230 | 10 | 210 | 6.4 | 8.0 | 0.00 | 0.00 | 0.00 | 100 | 1008.5 |
| 20260506235750 | 10 | 222 | 4.8 | 4.8 | 0.00 | 0.00 | 0.00 | 100 | 1008.4 |
| 20260506235310 | 10 | 231 | 4.8 | 4.8 | 0.00 | 0.00 | 0.00 | 100 | 1008.4 |
| 20260506234830 | 10 | 254 | 4.8 | 6.4 | 0.00 | 0.00 | 0.00 | 100 | 1008.3 |
| 20260506234350 | 10 | 225 | 3.2 | 4.8 | 0.00 | 0.00 | 0.00 | 100 | 1008.4 |
| 20260506233910 | 10 | 210 | 4.8 | 8.0 | 0.00 | 0.00 | 0.00 | 100 | 1008.5 |
| 20260506233430 | 10 | 206 | 4.8 | 6.4 | 0.00 | 0.00 | 0.00 | 100 | 1008.5 |
| 20260506232950 | 10 | 225 | 4.8 | 6.4 | 0.00 | 0.00 | 0.00 | 100 | 1008.3 |
| 20260506232510 | 10 | 225 | 6.4 | 8.0 | 0.00 | 0.00 | 0.00 | 100 | 1008.4 |
| 20260506232030 | 10 | 225 | 6.4 | 8.0 | 0.00 | 0.00 | 0.00 | 100 | 1008.4 |
| 20260506231550 | 10 | 225 | 8.0 | 9.7 | 0.00 | 0.00 | 0.00 | 100 | 1008.4 |
| 20260506231109 | 10 | 225 | 8.0 | 9.7 | 0.00 | 0.00 | 0.00 | 100 | 1008.5 |
| 20260506230629 | 10 | 222 | 9.7 | 11.3 | 0.00 | 0.00 | 0.00 | 100 | 1008.4 |
| 20260506230149 | 10 | 225 | 9.7 | 11.3 | 0.00 | 0.00 | 0.00 | 100 | 1008.3 |
| 20260506225709 | 10 | 222 | 8.0 | 9.7 | 0.00 | 0.00 | 0.00 | 100 | 1008.3 |
| 20260506225229 | 10 | 222 | 9.7 | 11.3 | 0.00 | 0.00 | 0.00 | 100 | 1008.3 |
| 20260506224749 | 10 | 216 | 11.3 | 14.5 | 0.00 | 0.00 | 0.00 | 100 | 1008.4 |
| 20260506224309 | 10 | 222 | 8.0 | 11.3 | 0.00 | 0.00 | 0.00 | 100 | 1008.4 |
| 20260506223829 | 10 | 222 | 8.0 | 9.7 | 0.00 | 0.00 | 0.00 | 100 | 1008.4 |
| 20260506223349 | 10 | 226 | 9.7 | 16.1 | 0.00 | 0.00 | 0.00 | 100 | 1008.4 |
| 20260506222909 | 10 | 251 | 11.3 | 14.5 | 0.00 | 0.00 | 0.00 | 100 | 1008.3 |
| 20260506222429 | 10 | 231 | 14.5 | 20.9 | 0.00 | 0.00 | 0.00 | 100 | 1008.3 |
| 20260506221949 | 11 | 235 | 6.4 | 12.9 | 0.00 | 0.00 | 0.00 | 100 | 1008.1 |
| 20260506221509 | 11 | 235 | 4.8 | 8.0 | 0.00 | 0.00 | 0.00 | 100 | 1008.0 |
| 20260506221222 | 10 | 254 | 8.0 | 11.3 | 0.00 | 0.00 | 0.00 | 100 | 1008.1 |
| 20260506221028 | 10 | 254 | 8.0 | 11.3 | 0.00 | 0.00 | 0.00 | 100 | 1008.1 |
| 20260506220548 | 10 | 267 | 9.7 | 11.3 | 0.00 | 0.00 | 0.00 | 100 | 1008.1 |
| 20260506220108 | 10 | 264 | 9.7 | 11.3 | 0.00 | 0.00 | 0.00 | 100 | 1008.1 |
| 20260506215628 | 10 | 256 | 6.4 | 9.7 | 0.00 | 0.00 | 0.00 | 100 | 1008.2 |
| 20260506215148 | 10 | 249 | 6.4 | 9.7 | 0.00 | 0.00 | 0.00 | 100 | 1008.3 |
| 20260506214708 | 10 | 249 | 6.4 | 9.7 | 0.00 | 0.00 | 0.00 | 100 | 1008.4 |
| 20260506214228 | 10 | 258 | 9.7 | 12.9 | 0.00 | 0.00 | 0.00 | 100 | 1008.5 |
| 20260506213748 | 10 | 237 | 11.3 | 12.9 | 0.00 | 0.00 | 0.00 | 100 | 1008.5 |
| 20260506213308 | 10 | 224 | 11.3 | 12.9 | 0.00 | 0.00 | 0.00 | 100 | 1008.5 |
| 20260506212828 | 11 | 227 | 11.3 | 14.5 | 0.00 | 0.00 | 0.00 | 100 | 1008.5 |
| 20260506212348 | 11 | 225 | 12.9 | 16.1 | 0.00 | 0.00 | 0.00 | 100 | 1008.4 |
| 20260506211908 | 11 | 210 | 12.9 | 16.1 | 0.00 | 0.00 | 0.00 | 100 | 1008.3 |
| 20260506211427 | 11 | 228 | 17.7 | 24.1 | 0.00 | 0.00 | 0.00 | 100 | 1008.4 |
| 20260506210947 | 11 | 228 | 16.1 | 19.3 | 0.00 | 0.00 | 0.00 | 100 | 1008.3 |
| 20260506210507 | 11 | 225 | 16.1 | 20.9 | 0.00 | 0.00 | 0.00 | 100 | 1008.1 |
| 20260506210027 | 11 | 216 | 19.3 | 25.7 | 0.00 | 0.00 | 0.00 | 100 | 1008.0 |
| 20260506205547 | 11 | 213 | 20.9 | 27.4 | 0.00 | 0.00 | 0.00 | 100 | 1008.0 |
| 20260506205107 | 12 | 187 | 12.9 | 16.1 | 0.00 | 0.00 | 0.00 | 97 | 1007.9 |
| 20260506204627 | 12 | 180 | 11.3 | 16.1 | 0.00 | 0.00 | 0.00 | 96 | 1007.7 |
| 20260506204146 | 12 | 180 | 6.4 | 6.4 | 0.00 | 0.00 | 0.00 | 96 | 1007.6 |
| 20260506203706 | 12 | 142 | 8.0 | 11.3 | 0.00 | 0.00 | 0.00 | 94 | 1007.6 |
| 20260506203307 | 12 | 141 | 9.7 | 12.9 | 0.00 | 0.00 | 0.00 | 93 | 1007.6 |
| 20260506203226 | 12 | 141 | 9.7 | 12.9 | 0.00 | 0.00 | 0.00 | 93 | 1007.6 |
| 20260506202746 | 12 | 141 | 12.9 | 17.7 | 0.00 | 0.00 | 0.00 | 91 | 1007.5 |
| 20260506202306 | 12 | 120 | 11.3 | 16.1 | 0.00 | 0.00 | 0.00 | 88 | 1007.5 |
| 20260506201826 | 12 | 132 | 8.0 | 9.7 | 0.00 | 0.00 | 0.00 | 90 | 1007.5 |
| 20260506201345 | 12 | 135 | 6.4 | 9.7 | 0.00 | 0.00 | 0.00 | 89 | 1007.5 |
| 20260506200905 | 12 | 135 | 6.4 | 8.0 | 0.00 | 0.00 | 0.00 | 87 | 1007.4 |
| 20260506200532 | 12 | 101 | 4.8 | 6.4 | 0.00 | 0.00 | 0.00 | 85 | 1007.3 |
| 20260506200425 | 12 | 101 | 4.8 | 6.4 | 0.00 | 0.00 | 0.00 | 85 | 1007.3 |
| 20260506195945 | 13 | 61 | 6.4 | 8.0 | 0.00 | 0.00 | 0.00 | 85 | 1007.1 |
| 20260506195505 | 12 | 23 | 6.4 | 11.3 | 0.00 | 0.00 | 0.00 | 86 | 1007.0 |
| 20260506195024 | 12 | 357 | 6.4 | 8.0 | 0.00 | 0.00 | 0.00 | 86 | 1007.0 |
| 20260506194544 | 12 | 0 | 6.4 | 8.0 | 0.00 | 0.00 | 0.00 | 86 | 1006.9 |
| 20260506194503 | 12 | 332 | 3.2 | 4.8 | 0.00 | 0.00 | 0.00 | 86 | 1006.9 |
| 20260506194104 | 12 | 332 | 3.2 | 4.8 | 0.00 | 0.00 | 0.00 | 86 | 1006.9 |
| 20260506193624 | 12 | 225 | 4.8 | 6.4 | 0.00 | 0.00 | 0.00 | 86 | 1007.1 |
| 20260506193144 | 13 | 51 | 8.0 | 11.3 | 0.00 | 0.00 | 0.00 | 82 | 1007.3 |
| 20260506192704 | 13 | 45 | 11.3 | 12.9 | 0.00 | 0.00 | 0.00 | 83 | 1007.1 |
| 20260506192223 | 13 | 36 | 11.3 | 12.9 | 0.00 | 0.00 | 0.00 | 84 | 1007.0 |
| 20260506191743 | 12 | 33 | 8.0 | 8.0 | 0.00 | 0.00 | 0.00 | 85 | 1006.9 |
| 20260506191303 | 12 | 45 | 9.7 | 12.9 | 0.00 | 0.00 | 0.00 | 84 | 1006.9 |
| 20260506190823 | 12 | 46 | 9.7 | 11.3 | 0.00 | 0.00 | 0.00 | 85 | 1006.8 |
| 20260506190343 | 12 | 66 | 8.0 | 9.7 | 0.00 | 0.00 | 0.00 | 87 | 1006.9 |
| 20260506185902 | 12 | 71 | 8.0 | 12.9 | 0.00 | 0.00 | 0.00 | 86 | 1006.8 |
| 20260506185422 | 12 | 45 | 12.9 | 16.1 | 0.00 | 0.00 | 0.00 | 85 | 1006.5 |
| 20260506184947 | 12 | 45 | 11.3 | 16.1 | 0.00 | 0.00 | 0.00 | 84 | 1006.3 |
| 20260506184942 | 12 | 45 | 11.3 | 16.1 | 0.00 | 0.00 | 0.00 | 84 | 1006.3 |
| 20260506184506 | 12 | 41 | 8.0 | 9.7 | 0.00 | 0.00 | 0.00 | 84 | 1006.3 |
| 20260506184502 | 12 | 41 | 8.0 | 9.7 | 0.00 | 0.00 | 0.00 | 84 | 1006.3 |
| 20260506184026 | 12 | 356 | 4.8 | 8.0 | 0.00 | 0.00 | 0.00 | 84 | 1006.3 |
| 20260506184022 | 12 | 356 | 4.8 | 8.0 | 0.00 | 0.00 | 0.00 | 84 | 1006.3 |
| 20260506183546 | 12 | 359 | 9.7 | 11.3 | 0.00 | 0.00 | 0.00 | 83 | 1006.1 |
| 20260506183541 | 12 | 359 | 9.7 | 11.3 | 0.00 | 0.00 | 0.00 | 83 | 1006.1 |
| 20260506183101 | 12 | 0 | 9.7 | 11.3 | 0.00 | 0.00 | 0.00 | 83 | 1006.0 |
| 20260506182621 | 12 | 359 | 11.3 | 14.5 | 0.00 | 0.00 | 0.00 | 82 | 1006.0 |
| 20260506182145 | 12 | 342 | 9.7 | 12.9 | 0.00 | 0.00 | 0.00 | 81 | 1006.0 |
| 20260506182141 | 12 | 342 | 9.7 | 12.9 | 0.00 | 0.00 | 0.00 | 81 | 1006.0 |
| 20260506181704 | 12 | 350 | 11.3 | 16.1 | 0.00 | 0.00 | 0.00 | 80 | 1006.0 |
| 20260506181701 | 12 | 350 | 11.3 | 16.1 | 0.00 | 0.00 | 0.00 | 80 | 1006.0 |
| 20260506181220 | 13 | 341 | 11.3 | 20.9 | 0.00 | 0.00 | 0.00 | 79 | 1005.9 |
| 20260506180745 | 13 | 327 | 14.5 | 24.1 | 0.00 | 0.00 | 0.00 | 78 | 1006.1 |
| 20260506180740 | 13 | 327 | 14.5 | 24.1 | 0.00 | 0.00 | 0.00 | 78 | 1006.1 |
| 20260506180304 | 13 | 309 | 14.5 | 24.1 | 0.00 | 0.00 | 0.00 | 78 | 1006.2 |
| 20260506180300 | 13 | 309 | 14.5 | 24.1 | 0.00 | 0.00 | 0.00 | 78 | 1006.2 |
| 20260506175820 | 13 | 310 | 14.5 | 20.9 | 0.00 | 0.00 | 0.00 | 78 | 1006.2 |
| 20260506175340 | 13 | 287 | 12.9 | 19.3 | 0.00 | 0.00 | 0.00 | 78 | 1006.3 |
| 20260506174904 | 14 | 312 | 9.7 | 12.9 | 0.00 | 0.00 | 0.00 | 74 | 1006.4 |
| 20260506174859 | 14 | 312 | 9.7 | 12.9 | 0.00 | 0.00 | 0.00 | 74 | 1006.4 |
| 20260506174423 | 14 | 318 | 4.8 | 6.4 | 0.00 | 0.00 | 0.00 | 73 | 1006.3 |
| 20260506174419 | 14 | 318 | 4.8 | 6.4 | 0.00 | 0.00 | 0.00 | 73 | 1006.3 |
| 20260506173939 | 14 | 315 | 4.8 | 6.4 | 0.00 | 0.00 | 0.00 | 73 | 1006.3 |
| 20260506173458 | 14 | 315 | 4.8 | 8.0 | 0.00 | 0.00 | 0.00 | 72 | 1006.1 |
| 20260506173023 | 15 | 315 | 6.4 | 8.0 | 0.00 | 0.00 | 0.00 | 72 | 1006.1 |
| 20260506173018 | 15 | 315 | 6.4 | 8.0 | 0.00 | 0.00 | 0.00 | 72 | 1006.1 |
| 20260506172542 | 15 | 315 | 4.8 | 6.4 | 0.00 | 0.00 | 0.00 | 72 | 1006.0 |
| 20260506172538 | 15 | 315 | 4.8 | 6.4 | 0.00 | 0.00 | 0.00 | 72 | 1006.0 |
| 20260506172101 | 15 | 331 | 6.4 | 8.0 | 0.00 | 0.00 | 0.00 | 71 | 1005.9 |
| 20260506172057 | 15 | 331 | 6.4 | 8.0 | 0.00 | 0.00 | 0.00 | 71 | 1005.9 |
| 20260506171621 | 15 | 342 | 6.4 | 8.0 | 0.00 | 0.00 | 0.00 | 70 | 1005.8 |
| 20260506171617 | 15 | 342 | 6.4 | 8.0 | 0.00 | 0.00 | 0.00 | 70 | 1005.8 |
| 20260506171136 | 15 | 336 | 8.0 | 11.3 | 0.00 | 0.00 | 0.00 | 69 | 1005.6 |
| 20260506170656 | 15 | 341 | 11.3 | 16.1 | 0.00 | 0.00 | 0.00 | 68 | 1005.4 |
| 20260506170220 | 15 | 328 | 11.3 | 16.1 | 0.00 | 0.00 | 0.00 | 67 | 1005.4 |
| 20260506170216 | 15 | 328 | 11.3 | 16.1 | 0.00 | 0.00 | 0.00 | 67 | 1005.4 |
| 20260506165740 | 15 | 0 | 9.7 | 12.9 | 0.00 | 0.00 | 0.00 | 66 | 1005.5 |
| 20260506165735 | 15 | 0 | 9.7 | 12.9 | 0.00 | 0.00 | 0.00 | 66 | 1005.5 |
| 20260506165255 | 15 | 0 | 8.0 | 11.3 | 0.00 | 0.00 | 0.00 | 65 | 1005.5 |
| 20260506164818 | 15 | 16 | 6.4 | 8.0 | 0.00 | 0.00 | 0.00 | 66 | 1005.7 |
| 20260506164815 | 15 | 16 | 6.4 | 8.0 | 0.00 | 0.00 | 0.00 | 66 | 1005.7 |
| 20260506164338 | 16 | 45 | 6.4 | 8.0 | 0.00 | 0.00 | 0.00 | 65 | 1005.8 |
| 20260506164334 | 16 | 45 | 6.4 | 8.0 | 0.00 | 0.00 | 0.00 | 65 | 1005.8 |
| 20260506163858 | 16 | 45 | 6.4 | 8.0 | 0.00 | 0.00 | 0.00 | 66 | 1005.8 |
| 20260506163854 | 16 | 45 | 6.4 | 8.0 | 0.00 | 0.00 | 0.00 | 66 | 1005.8 |
| 20260506163418 | 16 | 57 | 6.4 | 8.0 | 0.00 | 0.00 | 0.00 | 65 | 1005.9 |
| 20260506163413 | 16 | 57 | 6.4 | 8.0 | 0.00 | 0.00 | 0.00 | 65 | 1005.9 |
| 20260506162933 | 16 | 71 | 6.4 | 8.0 | 0.00 | 0.00 | 0.00 | 62 | 1005.9 |
| 20260506162457 | 16 | 81 | 4.8 | 8.0 | 0.00 | 0.00 | 0.00 | 62 | 1005.9 |
| 20260506162452 | 16 | 81 | 4.8 | 8.0 | 0.00 | 0.00 | 0.00 | 62 | 1005.9 |
| 20260506162012 | 16 | 83 | 8.0 | 11.3 | 0.00 | 0.00 | 0.00 | 57 | 1006.0 |
| 20260506161531 | 16 | 54 | 9.7 | 16.1 | 0.00 | 0.00 | 0.00 | 59 | 1005.9 |
| 20260506161051 | 17 | 45 | 8.0 | 11.3 | 0.00 | 0.00 | 0.00 | 65 | 1006.0 |
| 20260506160610 | 17 | 46 | 9.7 | 11.3 | 0.00 | 0.00 | 0.00 | 62 | 1006.0 |
| 20260506160133 | 17 | 75 | 8.0 | 12.9 | 0.00 | 0.00 | 0.00 | 59 | 1006.0 |
| 20260506160129 | 17 | 75 | 8.0 | 12.9 | 0.00 | 0.00 | 0.00 | 59 | 1006.0 |
| 20260506155653 | 17 | 72 | 9.7 | 12.9 | 0.00 | 0.00 | 0.00 | 59 | 1006.1 |
| 20260506155649 | 17 | 72 | 9.7 | 12.9 | 0.00 | 0.00 | 0.00 | 59 | 1006.1 |
| 20260506155212 | 17 | 87 | 8.0 | 11.3 | 0.00 | 0.00 | 0.00 | 60 | 1006.2 |
| 20260506155208 | 17 | 87 | 8.0 | 11.3 | 0.00 | 0.00 | 0.00 | 60 | 1006.2 |
| 20260506154732 | 17 | 77 | 6.4 | 12.9 | 0.00 | 0.00 | 0.00 | 59 | 1006.2 |
| 20260506154728 | 17 | 77 | 6.4 | 12.9 | 0.00 | 0.00 | 0.00 | 59 | 1006.2 |
| 20260506154251 | 18 | 83 | 4.8 | 9.7 | 0.00 | 0.00 | 0.00 | 59 | 1006.2 |
| 20260506154247 | 18 | 83 | 4.8 | 9.7 | 0.00 | 0.00 | 0.00 | 59 | 1006.2 |
| 20260506153806 | 18 | 97 | 8.0 | 14.5 | 0.00 | 0.00 | 0.00 | 58 | 1006.4 |
| 20260506153330 | 18 | 123 | 14.5 | 24.1 | 0.00 | 0.00 | 0.00 | 58 | 1006.4 |
| 20260506153326 | 18 | 123 | 14.5 | 24.1 | 0.00 | 0.00 | 0.00 | 58 | 1006.4 |
| 20260506152845 | 18 | 129 | 17.7 | 25.7 | 0.00 | 0.00 | 0.00 | 58 | 1006.4 |
| 20260506152409 | 18 | 132 | 6.4 | 12.9 | 0.00 | 0.00 | 0.00 | 56 | 1006.4 |
| 20260506152404 | 18 | 132 | 6.4 | 12.9 | 0.00 | 0.00 | 0.00 | 56 | 1006.4 |
| 20260506151928 | 18 | 118 | 9.7 | 14.5 | 0.00 | 0.00 | 0.00 | 55 | 1006.5 |
| 20260506151924 | 18 | 118 | 9.7 | 14.5 | 0.00 | 0.00 | 0.00 | 55 | 1006.5 |
| 20260506151447 | 18 | 91 | 11.3 | 19.3 | 0.00 | 0.00 | 0.00 | 56 | 1006.5 |
| 20260506151443 | 18 | 91 | 11.3 | 19.3 | 0.00 | 0.00 | 0.00 | 56 | 1006.5 |
| 20260506151006 | 18 | 123 | 9.7 | 17.7 | 0.00 | 0.00 | 0.00 | 56 | 1006.6 |
| 20260506151002 | 18 | 123 | 9.7 | 17.7 | 0.00 | 0.00 | 0.00 | 56 | 1006.6 |
| 20260506150526 | 19 | 105 | 8.0 | 11.3 | 0.00 | 0.00 | 0.00 | 58 | 1006.6 |
| 20260506150521 | 19 | 105 | 8.0 | 11.3 | 0.00 | 0.00 | 0.00 | 58 | 1006.6 |
| 20260506150044 | 20 | 81 | 6.4 | 9.7 | 0.00 | 0.00 | 0.00 | 56 | 1006.5 |
| 20260506150040 | 20 | 81 | 6.4 | 9.7 | 0.00 | 0.00 | 0.00 | 56 | 1006.5 |
| 20260506145605 | 20 | 118 | 8.0 | 14.5 | 0.00 | 0.00 | 0.00 | 55 | 1006.7 |
| 20260506145603 | 20 | 118 | 8.0 | 14.5 | 0.00 | 0.00 | 0.00 | 55 | 1006.7 |
| 20260506145559 | 20 | 118 | 8.0 | 14.5 | 0.00 | 0.00 | 0.00 | 55 | 1006.7 |
| 20260506145153 | 21 | 49 | 6.4 | 12.9 | 0.00 | 0.00 | 0.00 | 59 | 1006.6 |
| 20260506145122 | 21 | 49 | 6.4 | 12.9 | 0.00 | 0.00 | 0.00 | 59 | 1006.6 |
| 20260506145118 | 21 | 49 | 6.4 | 12.9 | 0.00 | 0.00 | 0.00 | 59 | 1006.6 |
| 20260506144641 | 21 | 16 | 152.9 | 61.2 | 0.00 | 0.00 | 0.00 | 61 | |
| 20260506144637 | 21 | 16 | 8.0 | 12.9 | 0.00 | 0.00 | 0.00 | 61 | 1006.7 |
| 20260506144156 | 21 | 47 | 1.6 | 6.4 | 0.00 | 0.00 | 0.00 | 63 | 1006.7 |
| 20260506143715 | 21 | 113 | 3.2 | 8.0 | 0.00 | 0.00 | 0.00 | 57 | 1006.8 |
| 20260506143234 | 20 | 153 | 8.0 | 12.9 | 0.00 | 0.00 | 0.00 | 55 | 1006.8 |
| 20260506142757 | 22 | 145 | 8.0 | 11.3 | 0.00 | 0.00 | 0.00 | 55 | 1006.9 |
| 20260506142753 | 22 | 145 | 8.0 | 11.3 | 0.00 | 0.00 | 0.00 | 55 | 1006.9 |
| 20260506142316 | 24 | 86 | 3.2 | 4.8 | 0.00 | 0.00 | 0.00 | 61 | 1006.9 |
| 20260506142311 | 24 | 86 | 3.2 | 4.8 | 0.00 | 0.00 | 0.00 | 61 | 1006.9 |
| 20260506141834 | 26 | 115 | 3.2 | 6.4 | 0.00 | 0.00 | 0.00 | 50 | 1006.8 |
| 20260506141830 | 26 | 115 | 3.2 | 6.4 | 0.00 | 0.00 | 0.00 | 50 | 1006.8 |
| 20260506141353 | 23 | 161 | 3.2 | 8.0 | 0.00 | 0.00 | 0.00 | 50 | 1006.8 |
| 20260506141348 | 23 | 161 | 3.2 | 8.0 | 0.00 | 0.00 | 0.00 | 50 | 1006.8 |
| 20260506140912 | 22 | 187 | 3.2 | 6.4 | 0.00 | 0.00 | 0.00 | 53 | 1006.8 |
| 20260506140907 | 22 | 187 | 3.2 | 6.4 | 0.00 | 0.00 | 0.00 | 53 | 1006.8 |
| 20260506140430 | 21 | 225 | 8.0 | 12.9 | 0.00 | 0.00 | 0.00 | 51 | 1006.9 |
| 20260506140426 | 21 | 225 | 8.0 | 12.9 | 0.00 | 0.00 | 0.00 | 51 | 1006.9 |
| 20260506135945 | 20 | 216 | 6.4 | 12.9 | 0.00 | 0.00 | 0.00 | 57 | 1006.9 |
| 20260506135504 | 20 | 210 | 4.8 | 8.0 | 0.00 | 0.00 | 0.00 | 55 | 1007.0 |
| 20260506135028 | 20 | 219 | 3.2 | 4.8 | 0.00 | 0.00 | 0.00 | 60 | 1007.1 |
| 20260506135023 | 20 | 219 | 3.2 | 4.8 | 0.00 | 0.00 | 0.00 | 60 | 1007.1 |
| 20260506134546 | 20 | 217 | 4.8 | 11.3 | 0.00 | 0.00 | 0.00 | 54 | 1007.1 |
| 20260506134542 | 20 | 217 | 4.8 | 11.3 | 0.00 | 0.00 | 0.00 | 54 | 1007.1 |
| 20260506134104 | 20 | 212 | 8.0 | 11.3 | 0.00 | 0.00 | 0.00 | 56 | 1007.0 |
| 20260506134101 | 20 | 212 | 8.0 | 11.3 | 0.00 | 0.00 | 0.00 | 56 | 1007.0 |
| 20260506133623 | 21 | 241 | 8.0 | 11.3 | 0.00 | 0.00 | 0.00 | 57 | 1007.1 |
| 20260506133619 | 21 | 241 | 8.0 | 11.3 | 0.00 | 0.00 | 0.00 | 57 | 1007.1 |
| 20260506133138 | 20 | 193 | 9.7 | 12.9 | 0.00 | 0.00 | 0.00 | 54 | 1007.1 |
| 20260506132701 | 22 | 45 | 3.2 | 11.3 | 0.00 | 0.00 | 0.00 | 47 | 1007.1 |
| 20260506132656 | 22 | 45 | 3.2 | 11.3 | 0.00 | 0.00 | 0.00 | 47 | 1007.1 |
| 20260506132215 | 25 | 262 | 4.8 | 8.0 | 0.00 | 0.00 | 0.00 | 62 | 1007.1 |
| 20260506131740 | 22 | 199 | 9.7 | 16.1 | 0.00 | 0.00 | 0.00 | 47 | 1007.2 |
| 20260506131737 | 22 | 199 | 9.7 | 16.1 | 0.00 | 0.00 | 0.00 | 47 | 1007.2 |
| 20260506131733 | 22 | 199 | 9.7 | 16.1 | 0.00 | 0.00 | 0.00 | 47 | 1007.2 |
| 20260506131257 | 22 | 193 | 9.7 | 20.9 | 0.00 | 0.00 | 0.00 | 45 | 1007.2 |
| 20260506131255 | 22 | 193 | 9.7 | 20.9 | 0.00 | 0.00 | 0.00 | 45 | 1007.2 |
| 20260506131252 | 22 | 193 | 9.7 | 20.9 | 0.00 | 0.00 | 0.00 | 45 | 1007.2 |
| 20260506130810 | 26 | 174 | 4.8 | 9.7 | 0.00 | 0.00 | 0.00 | 42 | 1007.2 |
| 20260506130332 | 25 | 192 | 1.6 | 3.2 | 0.00 | 0.00 | 0.00 | 46 | 1007.3 |
| 20260506130329 | 25 | 192 | 1.6 | 3.2 | 0.00 | 0.00 | 0.00 | 46 | 1007.3 |
| 20260506125847 | 23 | 210 | 3.2 | 4.8 | 0.00 | 0.00 | 0.00 | 53 | 1007.4 |
| 20260506125406 | 22 | 167 | 1.6 | 6.4 | 0.00 | 0.00 | 0.00 | 59 | 1007.5 |
| 20260506124925 | 20 | 222 | 11.3 | 20.9 | 0.00 | 0.00 | 0.00 | 50 | 1007.5 |
| 20260506124444 | 19 | 238 | 12.9 | 20.9 | 0.00 | 0.00 | 0.00 | 54 | 1007.6 |
| 20260506124003 | 21 | 232 | 9.7 | 14.5 | 0.00 | 0.00 | 0.00 | 56 | 1007.6 |
| 20260506123522 | 20 | 231 | 9.7 | 14.5 | 0.00 | 0.00 | 0.00 | 55 | 1007.7 |
| 20260506123041 | 19 | 213 | 14.5 | 19.3 | 0.00 | 0.00 | 0.00 | 55 | 1007.8 |
| 20260506122605 | 20 | 224 | 9.7 | 14.5 | 0.00 | 0.00 | 0.00 | 55 | 1007.9 |
| 20260506122600 | 20 | 224 | 9.7 | 14.5 | 0.00 | 0.00 | 0.00 | 55 | 1007.9 |
| 20260506122119 | 19 | 213 | 12.9 | 14.5 | 0.00 | 0.00 | 0.00 | 53 | 1008.0 |
| 20260506121638 | 19 | 204 | 12.9 | 19.3 | 0.00 | 0.00 | 0.00 | 55 | 1007.9 |
| 20260506121158 | 19 | 189 | 16.1 | 20.9 | 0.00 | 0.00 | 0.00 | 54 | 1007.9 |
| 20260506120721 | 19 | 184 | 11.3 | 19.3 | 0.00 | 0.00 | 0.00 | 55 | 1007.8 |
| 20260506120717 | 19 | 184 | 11.3 | 19.3 | 0.00 | 0.00 | 0.00 | 55 | 1007.8 |
| 20260506120236 | 18 | 207 | 11.3 | 16.1 | 0.00 | 0.00 | 0.00 | 55 | 1007.8 |
| 20260506115800 | 19 | 226 | 12.9 | 17.7 | 0.00 | 0.00 | 0.00 | 54 | 1007.7 |
| 20260506115759 | 19 | 226 | 12.9 | 17.7 | 0.00 | 0.00 | 0.00 | 54 | 1007.7 |
| 20260506115755 | 19 | 226 | 12.9 | 17.7 | 0.00 | 0.00 | 0.00 | 54 | 1007.7 |
| 20260506115314 | 18 | 203 | 14.5 | 19.3 | 0.00 | 0.00 | 0.00 | 58 | 1007.9 |
| 20260506114838 | 18 | 183 | 14.5 | 24.1 | 0.00 | 0.00 | 0.00 | 59 | 1007.8 |
| 20260506114834 | 18 | 183 | 14.5 | 24.1 | 0.00 | 0.00 | 0.00 | 59 | 1007.8 |
| 20260506114357 | 17 | 196 | 19.3 | 29.0 | 0.00 | 0.00 | 0.00 | 62 | 1008.0 |
| 20260506114353 | 17 | 196 | 19.3 | 29.0 | 0.00 | 0.00 | 0.00 | 62 | 1008.0 |
| 20260506113917 | 17 | 198 | 12.9 | 16.1 | 0.00 | 0.00 | 0.00 | 61 | 1007.9 |
| 20260506113912 | 17 | 198 | 12.9 | 16.1 | 0.00 | 0.00 | 0.00 | 61 | 1007.9 |
| 20260506113431 | 18 | 225 | 12.9 | 17.7 | 0.00 | 0.00 | 0.00 | 58 | 1007.9 |
| 20260506112951 | 18 | 235 | 8.0 | 17.7 | 0.00 | 0.00 | 0.00 | 65 | 1007.9 |
| 20260506112510 | 18 | 231 | 6.4 | 9.7 | 0.00 | 0.00 | 0.00 | 71 | 1007.9 |
| 20260506112033 | 18 | 229 | 12.9 | 19.3 | 0.00 | 0.00 | 0.00 | 66 | 1007.9 |
| 20260506112029 | 18 | 229 | 12.9 | 19.3 | 0.00 | 0.00 | 0.00 | 66 | 1007.9 |
| 20260506111549 | 17 | 190 | 17.7 | 22.5 | 0.00 | 0.00 | 0.00 | 63 | 1008.0 |
| 20260506111108 | 18 | 211 | 12.9 | 16.1 | 0.00 | 0.00 | 0.00 | 61 | 1008.1 |
| 20260506110628 | 17 | 197 | 12.9 | 16.1 | 0.00 | 0.00 | 0.00 | 64 | 1008.1 |
| 20260506110152 | 16 | 199 | 14.5 | 19.3 | 0.00 | 0.00 | 0.00 | 64 | 1008.0 |
| 20260506110147 | 16 | 199 | 14.5 | 19.3 | 0.00 | 0.00 | 0.00 | 64 | 1008.0 |
| 20260506105711 | 16 | 186 | 14.5 | 20.9 | 0.00 | 0.00 | 0.00 | 66 | 1008.2 |
| 20260506105706 | 16 | 186 | 14.5 | 20.9 | 0.00 | 0.00 | 0.00 | 66 | 1008.2 |
| 20260506105230 | 16 | 209 | 19.3 | 29.0 | 0.00 | 0.00 | 0.00 | 67 | 1008.2 |
| 20260506105226 | 16 | 209 | 19.3 | 29.0 | 0.00 | 0.00 | 0.00 | 67 | 1008.2 |
| 20260506104745 | 16 | 193 | 17.7 | 24.1 | 0.00 | 0.00 | 0.00 | 66 | 1008.1 |
| 20260506104309 | 16 | 195 | 16.1 | 20.9 | 0.00 | 0.00 | 0.00 | 67 | 1008.1 |
| 20260506104305 | 16 | 195 | 16.1 | 20.9 | 0.00 | 0.00 | 0.00 | 67 | 1008.1 |
| 20260506103824 | 16 | 189 | 19.3 | 27.4 | 0.00 | 0.00 | 0.00 | 65 | 1008.1 |
| 20260506103344 | 17 | 180 | 19.3 | 24.1 | 0.00 | 0.00 | 0.00 | 64 | 1008.2 |
| 20260506102908 | 16 | 181 | 19.3 | 22.5 | 0.00 | 0.00 | 0.00 | 67 | 1008.5 |
| 20260506102903 | 16 | 181 | 19.3 | 22.5 | 0.00 | 0.00 | 0.00 | 67 | 1008.5 |
| 20260506102427 | 16 | 209 | 17.7 | 20.9 | 0.00 | 0.00 | 0.00 | 66 | 1008.3 |
| 20260506102423 | 16 | 209 | 17.7 | 20.9 | 0.00 | 0.00 | 0.00 | 66 | 1008.3 |
| 20260506101943 | 15 | 196 | 19.3 | 22.5 | 0.00 | 0.00 | 0.00 | 68 | 1008.4 |
| 20260506101502 | 15 | 202 | 19.3 | 22.5 | 0.00 | 0.00 | 0.00 | 70 | 1008.4 |
| 20260506101022 | 15 | 190 | 20.9 | 27.4 | 0.00 | 0.00 | 0.00 | 72 | 1008.4 |
| 20260506100541 | 15 | 187 | 20.9 | 29.0 | 0.00 | 0.00 | 0.00 | 71 | 1008.3 |
| 20260506100101 | 15 | 180 | 22.5 | 29.0 | 0.00 | 0.00 | 0.00 | 71 | 1008.3 |
| 20260506095620 | 15 | 206 | 14.5 | 20.9 | 0.00 | 0.00 | 0.00 | 72 | 1008.2 |
| 20260506095140 | 15 | 212 | 17.7 | 24.1 | 0.00 | 0.00 | 0.00 | 70 | 1008.2 |
| 20260506094704 | 15 | 206 | 22.5 | 29.0 | 0.00 | 0.00 | 0.00 | 74 | 1008.3 |
| 20260506094700 | 15 | 206 | 22.5 | 29.0 | 0.00 | 0.00 | 0.00 | 74 | 1008.3 |
| 20260506094219 | 15 | 213 | 16.1 | 19.3 | 0.00 | 0.00 | 0.00 | 75 | 1008.3 |
| 20260506093739 | 15 | 219 | 16.1 | 20.9 | 0.00 | 0.00 | 0.00 | 77 | 1008.2 |
| 20260506093258 | 14 | 215 | 19.3 | 24.1 | 0.00 | 0.00 | 0.00 | 81 | 1008.2 |
| 20260506092822 | 13 | 193 | 20.9 | 25.7 | 0.00 | 0.00 | 0.00 | 87 | 1008.2 |
| 20260506092818 | 13 | 193 | 20.9 | 25.7 | 0.00 | 0.00 | 0.00 | 87 | 1008.2 |
| 20260506092338 | 13 | 210 | 20.9 | 27.4 | 0.00 | 0.00 | 0.00 | 92 | 1008.2 |
| 20260506091902 | 13 | 193 | 20.9 | 27.4 | 0.00 | 0.00 | 0.00 | 92 | 1008.2 |
| 20260506091857 | 13 | 193 | 20.9 | 27.4 | 0.00 | 0.00 | 0.00 | 92 | 1008.2 |
| 20260506091417 | 13 | 192 | 20.9 | 25.7 | 0.00 | 0.00 | 0.00 | 91 | 1008.0 |
| 20260506090937 | 12 | 210 | 30.6 | 33.8 | 0.00 | 0.00 | 0.00 | 91 | 1008.2 |
| 20260506090456 | 13 | 189 | 24.1 | 29.0 | 0.00 | 0.00 | 0.00 | 89 | 1008.3 |
| 20260506090020 | 14 | 193 | 19.3 | 24.1 | 0.00 | 0.00 | 0.00 | 91 | 1008.1 |
| 20260506090016 | 14 | 193 | 19.3 | 24.1 | 0.00 | 0.00 | 0.00 | 91 | 1008.1 |
| 20260506085535 | 14 | 213 | 20.9 | 27.4 | 0.00 | 0.00 | 0.00 | 92 | 1008.1 |
| 20260506085055 | 13 | 203 | 25.7 | 32.2 | 0.00 | 0.00 | 0.00 | 90 | 1008.2 |
| 20260506084615 | 14 | 196 | 24.1 | 32.2 | 0.00 | 0.00 | 0.00 | 91 | 1008.1 |
| 20260506084134 | 15 | 203 | 29.0 | 33.8 | 0.00 | 0.00 | 0.00 | 85 | 1007.9 |
| 20260506083654 | 15 | 206 | 27.4 | 38.6 | 0.00 | 0.00 | 0.00 | 86 | 1008.0 |
| 20260506083213 | 15 | 204 | 27.4 | 40.2 | 0.00 | 0.00 | 0.00 | 85 | 1007.9 |
| 20260506082733 | 15 | 193 | 24.1 | 32.2 | 0.00 | 0.00 | 0.00 | 88 | 1007.8 |
| 20260506082252 | 15 | 199 | 22.5 | 27.4 | 0.00 | 0.00 | 0.00 | 90 | 1007.9 |
| 20260506081816 | 14 | 210 | 20.9 | 29.0 | 0.00 | 0.00 | 0.00 | 92 | 1008.0 |
| 20260506081812 | 14 | 210 | 20.9 | 29.0 | 0.00 | 0.00 | 0.00 | 92 | 1008.0 |
| 20260506081332 | 14 | 216 | 25.7 | 38.6 | 0.00 | 0.00 | 0.00 | 92 | 1008.0 |
| 20260506080851 | 14 | 212 | 24.1 | 32.2 | 0.00 | 0.00 | 0.00 | 94 | 1007.8 |
| 20260506080411 | 14 | 207 | 24.1 | 30.6 | 0.00 | 0.00 | 0.00 | 95 | 1007.8 |